Time;durP1;ratioP1;P1;durP2;ratioP2;P2;SDS_P1;SDS_P2;PMS_P1;PMS_P2;Temp;Humidity;BMP_temperature;BMP_pressure;BME280_temperature;BME280_humidity;BME280_pressure;Samples;Min_cycle;Max_cycle;Signal;HPM_P1;HPM_P2
2022/11/19 00:01:44;;;;;;;3.80;1.88;;;2.10;99.90;;;;;;7404824;19;19918;-66
2022/11/19 00:04:13;;;;;;;3.10;1.45;;;2.00;99.90;;;;;;7404763;19;20344;-65
2022/11/19 00:06:42;;;;;;;4.13;1.40;;;2.00;99.90;;;;;;7403310;19;20277;-66
2022/11/19 00:09:15;;;;;;;4.20;1.55;;;1.90;99.90;;;;;;7408603;19;20254;-66
2022/11/19 00:14:26;;;;;;;5.28;1.90;;;1.90;99.90;;;;;;7402215;19;19927;-66
2022/11/19 00:16:55;;;;;;;4.78;2.03;;;1.90;99.90;;;;;;7404309;19;19914;-66
2022/11/19 00:19:24;;;;;;;3.80;1.52;;;1.90;99.90;;;;;;7403767;19;19914;-65
2022/11/19 00:21:53;;;;;;;5.78;1.90;;;1.80;99.90;;;;;;7403670;19;19915;-66
2022/11/19 00:24:28;;;;;;;4.72;1.52;;;1.80;99.90;;;;;;7403660;19;19919;-66
2022/11/19 00:26:58;;;;;;;6.55;1.63;;;1.80;99.90;;;;;;7402132;19;19926;-67
2022/11/19 00:29:27;;;;;;;4.70;1.63;;;1.70;99.90;;;;;;7404000;19;19978;-67
2022/11/19 00:31:56;;;;;;;4.15;1.70;;;1.70;99.90;;;;;;7404118;19;19914;-67
2022/11/19 00:34:26;;;;;;;4.95;1.80;;;1.70;99.90;;;;;;7403533;19;19919;-67
2022/11/19 00:36:55;;;;;;;4.93;1.90;;;1.70;99.90;;;;;;7403882;19;19926;-67
2022/11/19 00:39:26;;;;;;;4.63;2.13;;;1.70;99.90;;;;;;7403463;19;19928;-66
2022/11/19 00:41:55;;;;;;;5.43;1.80;;;1.60;99.90;;;;;;7403151;19;19931;-67
2022/11/19 00:44:24;;;;;;;3.97;1.73;;;1.70;99.90;;;;;;7403030;19;19914;-67
2022/11/19 00:46:53;;;;;;;3.75;1.30;;;1.70;99.90;;;;;;7402451;19;19914;-67
2022/11/19 00:49:23;;;;;;;4.63;2.08;;;1.70;99.90;;;;;;7403289;19;19922;-67
2022/11/19 00:51:52;;;;;;;5.43;1.67;;;1.70;99.90;;;;;;7403210;19;19919;-67
2022/11/19 00:54:21;;;;;;;4.93;1.85;;;1.70;99.90;;;;;;7403394;19;19955;-67
2022/11/19 00:56:52;;;;;;;3.85;1.35;;;1.70;99.90;;;;;;7402553;19;19918;-67
2022/11/19 00:59:21;;;;;;;4.68;1.60;;;1.70;99.90;;;;;;7402627;19;19919;-67
2022/11/19 01:01:51;;;;;;;2.97;1.10;;;1.70;99.90;;;;;;7402875;19;19926;-67
2022/11/19 01:04:20;;;;;;;5.40;2.00;;;1.70;99.90;;;;;;7402747;19;19914;-67
2022/11/19 01:06:49;;;;;;;4.72;1.95;;;1.60;99.90;;;;;;7404327;19;19939;-67
2022/11/19 01:09:19;;;;;;;3.88;1.63;;;1.60;99.90;;;;;;7402875;19;19911;-66
2022/11/19 01:11:48;;;;;;;6.03;2.03;;;1.60;99.90;;;;;;7405885;19;19910;-67
2022/11/19 01:14:19;;;;;;;4.35;2.00;;;1.60;99.90;;;;;;7409396;19;19938;-66
2022/11/19 01:16:48;;;;;;;5.57;2.28;;;1.60;99.90;;;;;;7409032;19;19918;-67
2022/11/19 01:19:17;;;;;;;4.10;2.05;;;1.60;99.90;;;;;;7408837;19;19918;-67
2022/11/19 01:21:46;;;;;;;6.35;2.70;;;1.60;99.90;;;;;;7406265;19;20359;-67
2022/11/19 01:24:15;;;;;;;4.68;1.77;;;1.50;99.90;;;;;;7409424;19;19926;-67
2022/11/19 01:26:44;;;;;;;5.10;2.60;;;1.50;99.90;;;;;;7407513;19;19942;-67
2022/11/19 01:29:13;;;;;;;3.17;1.35;;;1.50;99.90;;;;;;7408756;19;19922;-67
2022/11/19 01:31:48;;;;;;;4.97;2.22;;;1.50;99.90;;;;;;7408582;19;20358;-67
2022/11/19 01:34:17;;;;;;;4.97;2.35;;;1.40;99.90;;;;;;7408519;19;20210;-67
2022/11/19 01:36:46;;;;;;;4.32;1.65;;;1.40;99.90;;;;;;7408696;19;20345;-67
2022/11/19 01:39:15;;;;;;;6.18;2.03;;;1.40;99.90;;;;;;7408331;19;20051;-67
2022/11/19 01:41:44;;;;;;;6.20;2.25;;;1.40;99.90;;;;;;7408570;19;20279;-67
2022/11/19 01:44:55;;;;;;;4.50;1.90;;;1.20;99.90;;;;;;7408380;19;19924;-67
2022/11/19 01:47:27;;;;;;;5.50;2.53;;;1.20;99.90;;;;;;7404552;19;19919;-67
2022/11/19 01:49:56;;;;;;;5.93;2.70;;;1.10;99.90;;;;;;7408132;19;19926;-67
2022/11/19 01:52:26;;;;;;;5.07;2.42;;;1.10;99.90;;;;;;7408507;19;19911;-67
2022/11/19 01:54:57;;;;;;;5.03;2.10;;;1.00;99.90;;;;;;7408079;19;19931;-67
2022/11/19 01:57:26;;;;;;;6.78;2.70;;;0.90;99.90;;;;;;7407360;19;19939;-66
2022/11/19 01:59:55;;;;;;;4.05;1.95;;;0.90;99.90;;;;;;7408166;19;19925;-67
2022/11/19 02:02:28;;;;;;;5.43;2.35;;;0.80;99.90;;;;;;7408231;19;19989;-67
2022/11/19 02:04:58;;;;;;;7.28;3.22;;;0.80;99.90;;;;;;7409400;19;19918;-67
2022/11/19 02:07:30;;;;;;;7.22;2.80;;;0.80;99.90;;;;;;7405122;19;19929;-67
2022/11/19 02:10:02;;;;;;;5.72;2.47;;;0.80;99.90;;;;;;7407521;19;19914;-67
2022/11/19 02:12:43;;;;;;;5.72;2.22;;;0.70;99.90;;;;;;7407064;19;19915;-67
2022/11/19 02:15:20;;;;;;;7.05;3.20;;;0.70;99.90;;;;;;7407242;19;20342;-67
2022/11/19 02:18:06;;;;;;;5.93;2.63;;;0.70;99.90;;;;;;7405961;19;19919;-67
2022/11/19 02:20:54;;;;;;;5.13;2.42;;;0.70;99.90;;;;;;7405962;19;19918;-67
2022/11/19 02:23:51;;;;;;;5.05;2.55;;;0.70;99.90;;;;;;7404999;19;19915;-67
2022/11/19 02:26:56;;;;;;;5.43;2.33;;;0.60;99.90;;;;;;7406745;19;19926;-67
2022/11/19 02:29:52;;;;;;;4.05;1.98;;;0.60;99.90;;;;;;7407090;19;20004;-67
2022/11/19 02:32:30;;;;;;;5.38;2.10;;;0.50;99.90;;;;;;7405802;19;19918;-67
2022/11/19 02:35:03;;;;;;;4.10;1.85;;;0.60;99.90;;;;;;7406675;19;19987;-67
2022/11/19 02:37:37;;;;;;;6.00;2.40;;;0.50;99.90;;;;;;7406898;19;19915;-67
2022/11/19 02:40:10;;;;;;;5.40;2.53;;;0.50;99.90;;;;;;7406793;19;19942;-66
2022/11/19 02:42:45;;;;;;;6.00;2.20;;;0.50;99.90;;;;;;7406786;19;20331;-67
2022/11/19 02:45:17;;;;;;;;;;;0.50;99.90;;;;;;7408841;19;19914;-67
2022/11/19 02:47:52;;;;;;;4.55;2.15;;;0.50;99.90;;;;;;7405156;19;19922;-67
2022/11/19 02:50:24;;;;;;;5.60;1.92;;;0.50;99.90;;;;;;7407022;19;19910;-67
2022/11/19 02:52:54;;;;;;;5.75;2.40;;;0.40;99.90;;;;;;7406012;19;19930;-67
2022/11/19 02:55:24;;;;;;;6.97;2.25;;;0.40;99.90;;;;;;7405814;19;20450;-67
2022/11/19 02:57:59;;;;;;;5.07;2.10;;;0.40;99.90;;;;;;7406547;19;19919;-67
2022/11/19 03:06:04;;;;;;;5.90;2.17;;;0.30;99.90;;;;;;7405090;19;19925;-67
2022/11/19 03:08:33;;;;;;;5.95;2.30;;;0.30;99.90;;;;;;7403937;19;19915;-67
2022/11/19 03:11:11;;;;;;;5.13;2.50;;;0.20;99.90;;;;;;7405952;19;19949;-67
2022/11/19 03:16:43;;;;;;;4.97;2.08;;;0.20;99.90;;;;;;7405609;19;19939;-67
2022/11/19 03:19:26;;;;;;;5.70;2.38;;;0.10;99.90;;;;;;7405420;19;19926;-67
2022/11/19 03:22:01;;;;;;;5.50;2.47;;;0.10;99.90;;;;;;7405824;19;20326;-67
2022/11/19 03:24:34;;;;;;;4.68;1.77;;;0.10;99.90;;;;;;7405924;19;20358;-67
2022/11/19 03:27:09;;;;;;;5.85;1.85;;;0.10;99.90;;;;;;7404850;19;19994;-67
2022/11/19 03:29:43;;;;;;;4.80;1.90;;;0.10;99.90;;;;;;7405474;19;20398;-67
2022/11/19 03:32:15;;;;;;;5.93;2.42;;;0.10;99.90;;;;;;7405630;19;19918;-67
2022/11/19 03:34:50;;;;;;;5.07;1.88;;;0.00;99.90;;;;;;7403411;19;19922;-67
2022/11/19 03:37:22;;;;;;;6.85;2.45;;;0.00;99.90;;;;;;7405410;19;20266;-66
2022/11/19 03:39:53;;;;;;;5.32;2.17;;;0.00;99.90;;;;;;7404900;19;19935;-67
2022/11/19 03:42:23;;;;;;;7.40;2.20;;;0.00;99.90;;;;;;7404885;19;20269;-67
2022/11/19 03:44:57;;;;;;;11.30;2.67;;;-0.10;99.90;;;;;;7404862;19;19918;-67
2022/11/19 03:47:31;;;;;;;5.40;1.80;;;-0.10;99.90;;;;;;7404636;19;19985;-67
2022/11/19 03:50:08;;;;;;;5.95;2.22;;;-0.10;99.90;;;;;;7405290;19;19921;-66
2022/11/19 03:52:37;;;;;;;8.07;2.60;;;-0.10;99.90;;;;;;7405009;19;19944;-67
2022/11/19 03:55:09;;;;;;;5.93;2.80;;;-0.10;99.90;;;;;;7404689;19;19925;-66
2022/11/19 03:57:38;;;;;;;5.97;2.67;;;-0.20;99.90;;;;;;7404747;19;19921;-66
2022/11/19 04:00:08;;;;;;;5.55;2.72;;;-0.20;99.90;;;;;;7404860;19;19923;-66
2022/11/19 04:02:38;;;;;;;6.68;2.55;;;-0.20;99.90;;;;;;7406930;19;19910;-66
2022/11/19 04:05:11;;;;;;;5.55;2.22;;;-0.20;99.90;;;;;;7404605;19;19943;-66
2022/11/19 04:07:39;;;;;;;6.25;3.15;;;-0.20;99.90;;;;;;7404244;19;19918;-66
2022/11/19 04:10:09;;;;;;;7.05;2.42;;;-0.30;99.90;;;;;;7404449;19;19918;-67
2022/11/19 04:12:38;;;;;;;5.13;2.50;;;-0.30;99.90;;;;;;7404483;19;20332;-67
2022/11/19 04:15:09;;;;;;;5.88;2.88;;;-0.30;99.90;;;;;;7404637;19;19951;-67
2022/11/19 04:17:39;;;;;;;6.35;2.45;;;-0.30;99.90;;;;;;7404545;19;19944;-67
2022/11/19 04:20:11;;;;;;;6.35;2.65;;;-0.30;99.90;;;;;;7404053;19;19914;-66
2022/11/19 04:22:40;;;;;;;7.28;2.63;;;-0.40;99.90;;;;;;7402139;19;19919;-68
2022/11/19 04:25:11;;;;;;;6.32;3.00;;;-0.40;99.90;;;;;;7403994;19;19926;-66
2022/11/19 04:27:40;;;;;;;5.43;2.60;;;-0.40;99.90;;;;;;7403164;19;19914;-68
2022/11/19 04:30:11;;;;;;;5.32;2.92;;;-0.40;99.90;;;;;;7404191;19;19946;-67
2022/11/19 04:32:40;;;;;;;5.68;2.65;;;-0.40;99.90;;;;;;7402111;19;19923;-67
2022/11/19 04:35:12;;;;;;;6.13;2.08;;;-0.40;99.90;;;;;;7401912;19;19923;-67
2022/11/19 04:37:41;;;;;;;6.78;2.47;;;-0.50;99.90;;;;;;7403564;19;19910;-66
2022/11/19 04:40:12;;;;;;;6.43;2.58;;;-0.50;99.90;;;;;;7404294;19;19914;-66
2022/11/19 04:42:41;;;;;;;6.90;2.50;;;-0.40;99.90;;;;;;7403631;19;20276;-67
2022/11/19 04:45:11;;;;;;;4.70;2.05;;;-0.50;99.90;;;;;;7401435;19;20348;-67
2022/11/19 04:47:40;;;;;;;;;;;-0.50;99.90;;;;;;7404934;19;19921;-66
2022/11/19 04:50:12;;;;;;;6.65;2.55;;;-0.50;99.90;;;;;;7403150;19;19911;-66
2022/11/19 04:52:41;;;;;;;6.78;2.67;;;-0.60;99.90;;;;;;7403065;19;19978;-66
2022/11/19 04:55:10;;;;;;;6.53;2.67;;;-0.60;99.90;;;;;;7402508;19;19953;-66
2022/11/19 04:57:40;;;;;;;6.47;2.35;;;-0.60;99.90;;;;;;7403413;19;20587;-67
2022/11/19 05:00:10;;;;;;;6.40;2.83;;;-0.60;99.90;;;;;;7403033;19;20369;-66
2022/11/19 05:02:39;;;;;;;5.72;2.67;;;-0.60;99.90;;;;;;7402905;19;19935;-66
2022/11/19 05:05:11;;;;;;;5.53;2.13;;;-0.50;99.90;;;;;;7402389;19;19935;-67
2022/11/19 05:07:41;;;;;;;4.80;2.28;;;-0.60;99.90;;;;;;7403187;19;19970;-67
2022/11/19 05:10:10;;;;;;;6.85;2.75;;;-0.60;99.90;;;;;;7402725;19;20052;-66
2022/11/19 05:12:39;;;;;;;5.88;2.67;;;-0.60;99.90;;;;;;7402452;19;19929;-66
2022/11/19 05:15:10;;;;;;;6.57;2.90;;;-0.60;99.90;;;;;;7402744;19;19930;-65
2022/11/19 05:17:39;;;;;;;6.85;2.70;;;-0.60;99.90;;;;;;7402185;19;19919;-66
2022/11/19 05:20:12;;;;;;;6.32;2.92;;;-0.60;99.90;;;;;;7401965;19;19918;-66
2022/11/19 05:22:41;;;;;;;6.03;2.58;;;-0.70;99.90;;;;;;7402181;19;19932;-66
2022/11/19 05:25:10;;;;;;;6.60;2.67;;;-0.70;99.90;;;;;;7401951;19;19910;-66
2022/11/19 05:27:39;;;;;;;6.28;2.80;;;-0.70;99.90;;;;;;7402084;19;21755;-66
2022/11/19 05:30:10;;;;;;;7.18;2.60;;;-0.70;99.90;;;;;;7401995;19;19914;-66
2022/11/19 05:32:40;;;;;;;7.07;2.85;;;-0.70;99.90;;;;;;7402265;19;19918;-66
2022/11/19 05:35:12;;;;;;;5.97;2.70;;;-0.70;99.90;;;;;;7401796;19;20344;-66
2022/11/19 05:37:41;;;;;;;5.15;2.30;;;-0.70;99.90;;;;;;7402147;19;19921;-66
2022/11/19 05:40:17;;;;;;;5.97;2.55;;;-0.70;99.90;;;;;;7401955;19;19958;-66
2022/11/19 05:42:46;;;;;;;7.15;2.65;;;-0.80;99.90;;;;;;7401169;19;19942;-66
2022/11/19 05:45:15;;;;;;;7.05;2.78;;;-0.80;99.90;;;;;;7401535;19;19910;-66
2022/11/19 05:47:44;;;;;;;6.53;2.58;;;-0.80;99.90;;;;;;7401571;19;19982;-66
2022/11/19 05:50:16;;;;;;;6.80;2.80;;;-0.80;99.90;;;;;;7401800;19;19974;-66
2022/11/19 05:52:45;;;;;;;7.47;3.42;;;-0.80;99.90;;;;;;7399569;19;19931;-66
2022/11/19 05:55:15;;;;;;;6.28;2.78;;;-0.90;99.90;;;;;;7401173;19;19942;-67
2022/11/19 05:57:44;;;;;;;4.97;2.13;;;-0.90;99.90;;;;;;7404626;19;19978;-67
2022/11/19 06:00:15;;;;;;;6.60;2.35;;;-0.90;99.90;;;;;;7411027;19;20249;-67
2022/11/19 06:02:44;;;;;;;7.10;2.63;;;-0.90;99.90;;;;;;7407803;19;19925;-67
2022/11/19 06:05:16;;;;;;;7.40;3.13;;;-0.90;99.90;;;;;;7407542;19;19935;-67
2022/11/19 06:07:45;;;;;;;7.13;2.42;;;-0.90;99.90;;;;;;7405596;19;20333;-67
2022/11/19 06:10:14;;;;;;;6.70;2.85;;;-0.90;99.90;;;;;;7407711;19;19922;-68
2022/11/19 06:12:45;;;;;;;7.15;2.88;;;-1.00;99.90;;;;;;7408256;19;19910;-67
2022/11/19 06:15:14;;;;;;;7.13;3.13;;;-1.00;99.90;;;;;;7407890;19;19911;-67
2022/11/19 06:17:44;;;;;;;4.75;2.22;;;-0.90;99.90;;;;;;7407766;19;19978;-67
2022/11/19 06:20:15;;;;;;;7.63;3.17;;;-0.90;99.90;;;;;;7406499;19;19921;-67
2022/11/19 06:22:44;;;;;;;5.88;2.63;;;-1.00;99.90;;;;;;7405830;19;20284;-67
2022/11/19 06:25:13;;;;;;;9.15;2.95;;;-1.00;99.90;;;;;;7407101;19;20365;-67
2022/11/19 06:27:42;;;;;;;6.97;3.08;;;-1.00;99.90;;;;;;7407658;19;19922;-67
2022/11/19 06:30:13;;;;;;;10.52;2.88;;;-1.00;99.90;;;;;;7407114;19;19911;-66
2022/11/19 06:32:41;;;;;;;;;;;-1.00;99.90;;;;;;7409112;19;20359;-67
2022/11/19 06:35:12;;;;;;;6.40;2.30;;;-1.00;99.90;;;;;;7406956;19;20280;-67
2022/11/19 06:37:43;;;;;;;5.72;2.78;;;-1.10;99.90;;;;;;7407195;19;19919;-67
2022/11/19 06:40:14;;;;;;;6.47;3.05;;;-1.10;99.90;;;;;;7407051;19;19914;-66
2022/11/19 06:42:43;;;;;;;8.02;3.08;;;-1.10;99.90;;;;;;7406924;19;20366;-66
2022/11/19 06:45:14;;;;;;;8.60;3.13;;;-1.10;99.90;;;;;;7406780;19;19919;-66
2022/11/19 06:47:44;;;;;;;7.40;3.42;;;-1.10;99.90;;;;;;7406532;19;19911;-66
2022/11/19 06:50:13;;;;;;;6.45;2.78;;;-1.10;99.90;;;;;;7404261;19;19917;-66
2022/11/19 06:52:44;;;;;;;7.25;2.50;;;-1.20;99.90;;;;;;7406642;19;19930;-66
2022/11/19 06:55:13;;;;;;;7.82;3.28;;;-1.20;99.90;;;;;;7406294;19;19925;-67
2022/11/19 06:57:43;;;;;;;7.18;2.95;;;-1.20;99.90;;;;;;7407511;19;19925;-66
2022/11/19 07:00:14;;;;;;;8.32;3.10;;;-1.20;99.90;;;;;;7406351;19;20255;-66
2022/11/19 07:02:43;;;;;;;7.43;3.42;;;-1.20;99.90;;;;;;7406275;19;19927;-66
2022/11/19 07:05:12;;;;;;;6.97;3.47;;;-1.20;99.90;;;;;;7405597;19;20321;-66
2022/11/19 07:07:45;;;;;;;7.07;3.25;;;-1.20;99.90;;;;;;7406301;19;20349;-66
2022/11/19 07:10:14;;;;;;;7.28;3.17;;;-1.20;99.90;;;;;;7401792;19;19939;-67
2022/11/19 07:12:43;;;;;;;8.02;3.28;;;-1.20;99.90;;;;;;7405812;19;19927;-66
2022/11/19 07:15:12;;;;;;;6.50;2.60;;;-1.20;99.90;;;;;;7405692;19;20365;-66
2022/11/19 07:17:41;;;;;;;7.55;3.05;;;-1.30;99.90;;;;;;7405825;19;19982;-67
2022/11/19 07:20:12;;;;;;;7.90;3.25;;;-1.30;99.90;;;;;;7404963;19;19942;-66
2022/11/19 07:22:42;;;;;;;;;;;-1.30;99.90;;;;;;7407645;19;19918;-66
2022/11/19 07:25:14;;;;;;;7.55;3.42;;;-1.20;99.90;;;;;;7404997;19;19982;-66
2022/11/19 07:27:45;;;;;;;5.78;2.58;;;-1.20;99.90;;;;;;7405250;19;19910;-66
2022/11/19 07:30:15;;;;;;;8.10;3.72;;;-1.20;99.90;;;;;;7403426;19;19925;-66
2022/11/19 07:32:45;;;;;;;6.65;3.17;;;-1.20;99.90;;;;;;7405277;19;19929;-66
2022/11/19 07:35:14;;;;;;;7.47;3.88;;;-1.20;99.90;;;;;;7405119;19;19910;-66
2022/11/19 07:37:43;;;;;;;9.27;3.90;;;-1.20;99.90;;;;;;7405472;19;19970;-66
2022/11/19 07:40:16;;;;;;;8.98;3.75;;;-1.20;99.90;;;;;;7405376;19;19911;-66
2022/11/19 07:42:48;;;;;;;9.55;4.25;;;-1.10;99.90;;;;;;7405539;19;19978;-67
2022/11/19 07:45:17;;;;;;;6.82;3.55;;;-1.20;99.90;;;;;;7405244;19;19914;-66
2022/11/19 07:47:46;;;;;;;7.40;3.33;;;-1.10;99.90;;;;;;7404649;19;19911;-66
2022/11/19 07:50:16;;;;;;;7.38;3.15;;;-1.10;99.90;;;;;;7402806;19;20348;-66
2022/11/19 07:52:45;;;;;;;7.28;2.97;;;-1.10;99.90;;;;;;7404928;19;20281;-66
2022/11/19 07:55:17;;;;;;;8.93;4.07;;;-1.00;99.90;;;;;;7404078;19;19915;-66
2022/11/19 07:57:46;;;;;;;12.35;5.05;;;-1.00;99.90;;;;;;7409134;19;19922;-66
2022/11/19 08:00:17;;;;;;;11.77;5.05;;;-1.00;99.90;;;;;;7404758;19;19918;-68
2022/11/19 08:02:46;;;;;;;12.85;6.18;;;-0.90;99.90;;;;;;7404581;19;20322;-67
2022/11/19 08:05:15;;;;;;;17.48;6.22;;;-0.90;99.90;;;;;;7404703;19;19926;-66
2022/11/19 08:07:45;;;;;;;11.85;5.22;;;-0.90;99.90;;;;;;7404585;19;19926;-67
2022/11/19 08:10:17;;;;;;;8.30;3.75;;;-0.80;99.90;;;;;;7403099;19;19925;-67
2022/11/19 08:13:02;;;;;;;7.15;3.80;;;-0.80;99.90;;;;;;7404662;19;19918;-67
2022/11/19 08:15:31;;;;;;;7.32;3.65;;;-0.70;99.90;;;;;;7404260;19;20380;-67
2022/11/19 08:18:12;;;;;;;7.43;3.42;;;-0.70;99.90;;;;;;7404605;19;19939;-67
2022/11/19 08:20:42;;;;;;;7.25;3.58;;;-0.60;99.90;;;;;;7402342;19;19990;-67
2022/11/19 08:23:13;;;;;;;10.45;3.85;;;-0.60;99.90;;;;;;7402242;19;19921;-67
2022/11/19 08:25:47;;;;;;;9.77;3.97;;;-0.50;99.90;;;;;;7403738;19;20364;-65
2022/11/19 08:28:15;;;;;;;7.60;3.17;;;-0.50;99.90;;;;;;7403967;19;19915;-68
2022/11/19 08:30:45;;;;;;;6.90;3.35;;;-0.50;99.90;;;;;;7402532;19;19914;-66
2022/11/19 08:33:14;;;;;;;7.18;3.95;;;-0.40;99.90;;;;;;7403893;19;20292;-66
2022/11/19 08:35:43;;;;;;;8.73;3.28;;;-0.30;99.90;;;;;;7403418;19;19974;-66
2022/11/19 08:38:12;;;;;;;7.05;3.28;;;-0.30;99.90;;;;;;7403508;19;19926;-66
2022/11/19 08:40:41;;;;;;;7.47;3.30;;;-0.30;99.90;;;;;;7403353;19;19919;-66
2022/11/19 08:43:10;;;;;;;8.63;3.70;;;-0.20;99.90;;;;;;7403535;19;19906;-66
2022/11/19 08:45:40;;;;;;;6.88;3.75;;;-0.20;99.90;;;;;;7403493;19;20400;-66
2022/11/19 08:48:12;;;;;;;8.50;3.92;;;-0.20;99.90;;;;;;7403161;19;19929;-67
2022/11/19 08:50:44;;;;;;;7.95;3.65;;;-0.20;99.90;;;;;;7401593;19;19964;-67
2022/11/19 08:53:12;;;;;;;7.75;3.67;;;-0.10;99.90;;;;;;7403025;19;19948;-67
2022/11/19 08:55:42;;;;;;;7.57;3.60;;;-0.10;99.90;;;;;;7405180;19;19919;-67
2022/11/19 08:58:13;;;;;;;9.60;3.83;;;0.00;99.90;;;;;;7402970;19;20005;-67
2022/11/19 09:00:42;;;;;;;7.82;3.33;;;0.10;99.90;;;;;;7403053;19;19914;-67
2022/11/19 09:03:11;;;;;;;7.30;3.60;;;0.10;99.90;;;;;;7402629;19;20356;-67
2022/11/19 09:05:40;;;;;;;7.13;3.17;;;0.20;99.90;;;;;;7402341;19;19931;-67
2022/11/19 09:08:10;;;;;;;6.65;2.85;;;0.20;99.90;;;;;;7402475;19;19918;-67
2022/11/19 09:10:40;;;;;;;7.78;3.47;;;0.30;99.90;;;;;;7400822;19;19919;-67
2022/11/19 09:13:09;;;;;;;8.57;3.75;;;0.40;99.90;;;;;;7401989;19;19978;-67
2022/11/19 09:15:41;;;;;;;8.20;3.60;;;0.40;99.90;;;;;;7402475;19;19934;-67
2022/11/19 09:18:10;;;;;;;7.35;2.67;;;0.40;99.90;;;;;;7402128;19;19918;-67
2022/11/19 09:20:39;;;;;;;8.40;3.20;;;0.50;99.90;;;;;;7401572;19;19987;-67
2022/11/19 09:23:08;;;;;;;6.90;3.70;;;0.60;99.90;;;;;;7402142;19;19915;-67
2022/11/19 09:25:37;;;;;;;6.18;3.45;;;0.60;99.90;;;;;;7401447;19;20340;-67
2022/11/19 09:28:06;;;;;;;8.00;3.95;;;0.60;99.90;;;;;;7402179;19;19911;-67
2022/11/19 09:30:35;;;;;;;8.05;3.72;;;0.70;99.90;;;;;;7400068;19;19982;-67
2022/11/19 09:33:08;;;;;;;6.90;3.33;;;0.70;99.90;;;;;;7406008;19;19947;-67
2022/11/19 09:35:37;;;;;;;7.65;3.15;;;0.80;99.90;;;;;;7408813;19;19947;-67
2022/11/19 09:38:06;;;;;;;6.68;3.15;;;0.90;99.90;;;;;;7408644;19;19919;-67
2022/11/19 09:40:35;;;;;;;8.02;2.75;;;1.00;99.90;;;;;;7408265;19;20344;-67
2022/11/19 09:43:12;;;;;;;8.52;3.55;;;1.00;99.90;;;;;;7408807;19;19918;-67
2022/11/19 09:45:50;;;;;;;5.57;2.50;;;1.10;99.90;;;;;;7408010;19;19993;-67
2022/11/19 09:48:31;;;;;;;7.03;3.03;;;1.20;99.90;;;;;;7408245;19;19918;-68
2022/11/19 09:51:04;;;;;;;7.00;3.08;;;1.20;99.90;;;;;;7405327;19;19915;-67
2022/11/19 09:53:42;;;;;;;7.38;2.83;;;1.30;99.90;;;;;;7409327;19;19982;-67
2022/11/19 09:56:17;;;;;;;7.30;3.17;;;1.30;99.90;;;;;;7407491;19;19950;-68
2022/11/19 09:58:47;;;;;;;6.88;2.70;;;1.40;99.90;;;;;;7407841;19;19918;-68
2022/11/19 10:01:18;;;;;;;8.80;4.00;;;1.40;99.90;;;;;;7407609;19;19958;-67
2022/11/19 10:03:53;;;;;;;6.65;3.10;;;1.50;99.90;;;;;;7407872;19;19918;-67
2022/11/19 10:06:30;;;;;;;7.70;3.03;;;1.60;99.90;;;;;;7406578;19;19919;-67
2022/11/19 10:09:17;;;;;;;6.13;2.85;;;1.60;99.90;;;;;;7407806;19;19923;-68
2022/11/19 10:11:59;;;;;;;7.00;3.45;;;1.70;99.90;;;;;;7407948;19;19919;-68
2022/11/19 10:14:45;;;;;;;9.40;3.00;;;1.80;99.90;;;;;;7407870;19;19915;-67
2022/11/19 10:17:27;;;;;;;8.68;3.20;;;1.90;99.90;;;;;;7407393;19;20287;-67
2022/11/19 10:20:17;;;;;;;6.40;2.85;;;1.90;99.90;;;;;;7407214;19;19982;-67
2022/11/19 10:22:52;;;;;;;6.15;2.83;;;2.00;99.90;;;;;;7406960;19;20283;-68
2022/11/19 10:25:24;;;;;;;5.60;2.70;;;2.10;99.90;;;;;;7406779;19;20603;-67
2022/11/19 10:27:55;;;;;;;8.80;2.95;;;2.10;99.90;;;;;;7405211;19;20285;-68
2022/11/19 10:30:24;;;;;;;;;;;2.20;99.90;;;;;;7407667;19;19921;-69
2022/11/19 10:32:59;;;;;;;6.32;3.25;;;2.20;99.90;;;;;;7406889;19;20105;-68
2022/11/19 10:35:39;;;;;;;7.13;3.13;;;2.30;99.90;;;;;;7407005;19;20361;-67
2022/11/19 10:38:18;;;;;;;8.05;3.30;;;2.50;99.90;;;;;;7406835;19;19935;-67
2022/11/19 10:40:52;;;;;;;6.38;2.70;;;2.60;99.90;;;;;;7406474;19;20341;-67
2022/11/19 10:43:28;;;;;;;7.20;2.92;;;2.60;99.90;;;;;;7407260;19;19911;-67
2022/11/19 10:45:58;;;;;;;6.20;2.75;;;2.70;99.90;;;;;;7406416;19;19914;-67
2022/11/19 10:48:38;;;;;;;6.85;3.03;;;2.90;99.90;;;;;;7407131;19;19983;-68
2022/11/19 10:51:19;;;;;;;5.47;2.72;;;3.00;99.90;;;;;;7404384;19;19911;-68
2022/11/19 10:53:49;;;;;;;6.15;3.22;;;3.00;99.90;;;;;;7410949;19;19922;-67
2022/11/19 10:56:23;;;;;;;6.90;2.80;;;3.20;99.90;;;;;;7405862;19;20222;-67
2022/11/19 10:58:54;;;;;;;7.30;2.90;;;3.30;99.90;;;;;;7406120;19;19966;-67
2022/11/19 11:01:30;;;;;;;5.53;2.08;;;3.30;99.90;;;;;;7406483;19;19915;-67
2022/11/19 11:04:09;;;;;;;4.65;2.13;;;3.50;99.90;;;;;;7406261;19;19918;-68
2022/11/19 11:06:55;;;;;;;5.50;2.45;;;3.60;99.90;;;;;;7403128;19;19922;-67
2022/11/19 11:09:33;;;;;;;5.28;2.22;;;3.70;99.90;;;;;;7404226;19;19928;-67
2022/11/19 11:15:02;;;;;;;5.85;2.67;;;3.90;99.90;;;;;;7405988;19;19918;-68
2022/11/19 11:17:35;;;;;;;5.90;2.60;;;4.00;99.90;;;;;;7405612;19;19966;-67
2022/11/19 11:20:08;;;;;;;6.47;2.58;;;4.00;99.90;;;;;;7405927;19;19921;-67
2022/11/19 11:22:41;;;;;;;6.40;2.92;;;4.10;99.90;;;;;;7403714;19;19982;-67
2022/11/19 11:25:21;;;;;;;5.90;2.22;;;4.20;99.90;;;;;;7405101;19;20284;-67
2022/11/19 11:28:07;;;;;;;5.70;2.33;;;4.20;99.90;;;;;;7405754;19;19930;-66
2022/11/19 11:30:55;;;;;;;5.82;2.47;;;4.40;99.90;;;;;;7404253;19;19922;-66
2022/11/19 11:33:44;;;;;;;4.78;2.15;;;4.50;99.90;;;;;;7405824;19;19914;-67
2022/11/19 11:36:16;;;;;;;5.68;2.58;;;4.60;99.90;;;;;;7403474;19;19923;-67
2022/11/19 11:38:50;;;;;;;4.78;2.22;;;4.60;99.90;;;;;;7405230;19;19934;-67
2022/11/19 11:41:21;;;;;;;4.88;2.10;;;4.70;99.90;;;;;;7405419;19;20242;-70
2022/11/19 11:44:03;;;;;;;8.05;2.15;;;4.80;99.90;;;;;;7403718;19;20361;-68
2022/11/19 11:46:42;;;;;;;5.32;2.05;;;4.90;99.90;;;;;;7405248;19;19915;-68
2022/11/19 11:49:27;;;;;;;6.30;2.47;;;5.00;99.90;;;;;;7404947;19;19970;-68
2022/11/19 11:52:15;;;;;;;4.90;2.00;;;5.00;99.90;;;;;;7406652;19;20313;-66
2022/11/19 11:55:02;;;;;;;5.18;1.92;;;5.10;99.90;;;;;;7403455;19;19915;-68
2022/11/19 11:57:33;;;;;;;5.47;1.98;;;5.20;99.90;;;;;;7404535;19;19915;-67
2022/11/19 12:00:03;;;;;;;5.22;2.17;;;5.20;99.90;;;;;;7404385;19;19914;-67
2022/11/19 12:02:35;;;;;;;5.00;2.33;;;5.30;99.90;;;;;;7405003;19;20368;-67
2022/11/19 12:05:07;;;;;;;5.18;2.17;;;5.40;99.90;;;;;;7404879;19;19918;-67
2022/11/19 12:08:05;;;;;;;5.47;2.53;;;5.50;99.90;;;;;;7404555;19;19927;-67
2022/11/19 12:10:46;;;;;;;4.60;2.20;;;5.50;99.90;;;;;;7403246;19;19929;-68
2022/11/19 12:13:39;;;;;;;4.95;1.98;;;5.60;99.90;;;;;;7404138;19;19914;-67
2022/11/19 12:16:13;;;;;;;6.10;2.05;;;5.70;99.90;;;;;;7404277;19;19915;-67
2022/11/19 12:18:54;;;;;;;6.43;2.15;;;5.70;99.90;;;;;;7404184;19;19994;-67
2022/11/19 12:21:36;;;;;;;5.82;2.00;;;5.80;99.90;;;;;;7403233;19;19943;-67
2022/11/19 12:24:19;;;;;;;5.15;2.20;;;5.90;99.90;;;;;;7404006;19;19915;-67
2022/11/19 12:27:01;;;;;;;5.72;2.10;;;5.90;99.90;;;;;;7403771;19;19915;-67
2022/11/19 12:29:40;;;;;;;4.95;2.28;;;6.00;99.90;;;;;;7404114;19;19919;-66
2022/11/19 12:32:22;;;;;;;5.93;2.08;;;6.10;99.90;;;;;;7403897;19;19917;-67
2022/11/19 12:35:17;;;;;;;6.28;2.55;;;6.10;99.90;;;;;;7404030;19;19922;-67
2022/11/19 12:38:13;;;;;;;6.60;2.70;;;6.20;99.90;;;;;;7403557;19;19935;-66
2022/11/19 12:40:55;;;;;;;6.40;2.30;;;6.30;99.90;;;;;;7403210;19;20577;-67
2022/11/19 12:43:52;;;;;;;4.40;2.13;;;6.30;99.90;;;;;;7403216;19;19993;-67
2022/11/19 12:46:31;;;;;;;4.60;1.92;;;6.40;99.90;;;;;;7404242;19;19938;-67
2022/11/19 12:49:22;;;;;;;4.47;2.03;;;6.40;99.90;;;;;;7403628;19;19999;-67
2022/11/19 12:51:57;;;;;;;5.00;2.17;;;6.40;99.90;;;;;;7401769;19;19921;-66
2022/11/19 12:54:43;;;;;;;4.25;1.73;;;6.30;99.90;;;;;;7403202;19;19974;-67
2022/11/19 12:57:31;;;;;;;5.78;2.40;;;6.20;99.90;;;;;;7403008;19;19966;-67
2022/11/19 13:00:13;;;;;;;4.78;2.03;;;6.10;99.90;;;;;;7403283;19;19938;-67
2022/11/19 13:02:53;;;;;;;4.93;2.17;;;6.10;99.90;;;;;;7403235;19;19910;-66
2022/11/19 13:05:46;;;;;;;6.25;2.58;;;6.00;99.90;;;;;;7402689;19;20698;-67
2022/11/19 13:08:22;;;;;;;4.03;1.73;;;5.90;99.90;;;;;;7407250;19;19914;-67
2022/11/19 13:10:57;;;;;;;5.10;1.95;;;5.70;99.90;;;;;;7407608;19;20845;-67
2022/11/19 13:13:31;;;;;;;4.80;1.45;;;5.60;99.90;;;;;;7409069;19;20364;-67
2022/11/19 13:16:09;;;;;;;4.85;2.42;;;5.50;99.90;;;;;;7408893;19;19911;-67
2022/11/19 13:18:53;;;;;;;4.88;1.60;;;5.50;99.90;;;;;;7407115;19;20029;-67
2022/11/19 13:21:31;;;;;;;4.35;1.85;;;5.40;99.90;;;;;;7407118;19;19923;-67
2022/11/19 13:24:09;;;;;;;4.68;1.83;;;5.50;99.90;;;;;;7408840;19;19956;-67
2022/11/19 13:26:39;;;;;;;5.38;2.00;;;5.50;99.90;;;;;;7408478;19;19918;-67
2022/11/19 13:29:30;;;;;;;5.10;2.05;;;5.50;99.90;;;;;;7408792;19;19918;-67
2022/11/19 13:32:05;;;;;;;6.25;2.10;;;5.50;99.90;;;;;;7406625;19;20239;-66
2022/11/19 13:34:44;;;;;;;7.50;2.00;;;5.60;99.90;;;;;;7408392;19;20588;-66
2022/11/19 13:37:18;;;;;;;4.53;2.20;;;5.70;99.90;;;;;;7408299;19;19926;-67
2022/11/19 13:39:51;;;;;;;7.35;2.17;;;5.80;99.90;;;;;;7408516;19;19922;-66